Time;durP1;ratioP1;P1;durP2;ratioP2;P2;SDS_P1;SDS_P2;PMS_P1;PMS_P2;Temp;Humidity;BMP_temperature;BMP_pressure;BME280_temperature;BME280_humidity;BME280_pressure;Samples;Min_cycle;Max_cycle;Signal;HPM_P1;HPM_P2
2022/09/17 00:00:21;;;;;;;5.00;1.97;;;11.20;99.90;;;;;;5115787;28;20447;-56
2022/09/17 00:02:53;;;;;;;2.17;1.70;;;11.20;99.90;;;;;;5115869;28;20470;-54
2022/09/17 00:05:20;;;;;;;2.63;1.57;;;11.20;99.90;;;;;;5115763;28;20434;-57
2022/09/17 00:07:47;;;;;;;2.47;1.40;;;11.20;99.90;;;;;;5115591;28;20450;-56
2022/09/17 00:10:14;;;;;;;2.30;1.50;;;11.30;99.90;;;;;;5115875;28;20447;-57
2022/09/17 00:12:41;;;;;;;2.43;1.70;;;11.20;99.90;;;;;;5115435;28;20474;-57
2022/09/17 00:15:10;;;;;;;2.30;1.70;;;11.30;99.90;;;;;;5115191;28;20889;-56
2022/09/17 00:17:37;;;;;;;2.27;1.53;;;11.40;99.90;;;;;;5115343;28;20442;-56
2022/09/17 00:20:08;;;;;;;1.90;1.70;;;11.50;99.90;;;;;;5115296;28;20445;-57
2022/09/17 00:22:35;;;;;;;2.50;1.70;;;11.40;99.90;;;;;;5115300;28;20472;-56
2022/09/17 00:25:03;;;;;;;3.30;1.63;;;11.40;99.90;;;;;;5115546;28;20481;-54
2022/09/17 00:27:30;;;;;;;2.40;2.20;;;11.20;99.90;;;;;;5115089;28;20453;-56
2022/09/17 00:29:57;;;;;;;4.57;1.67;;;11.30;99.90;;;;;;5114933;28;20475;-56
2022/09/17 00:32:26;;;;;;;2.40;1.80;;;11.20;99.90;;;;;;5115100;28;20554;-56
2022/09/17 00:34:53;;;;;;;2.17;1.70;;;11.20;99.90;;;;;;5115233;28;20453;-56
2022/09/17 00:37:22;;;;;;;1.50;1.40;;;11.20;99.90;;;;;;5114852;28;20499;-56
2022/09/17 00:39:49;;;;;;;1.70;1.60;;;11.00;99.90;;;;;;5114919;28;20443;-56
2022/09/17 00:42:17;;;;;;;1.53;1.43;;;11.10;99.90;;;;;;5114874;28;20821;-57
2022/09/17 00:44:51;;;;;;;2.10;1.57;;;11.10;99.90;;;;;;5114793;28;20478;-56
2022/09/17 00:47:25;;;;;;;2.43;1.57;;;11.10;99.90;;;;;;5114767;28;20793;-57
2022/09/17 00:49:56;;;;;;;1.70;1.60;;;11.20;99.90;;;;;;5114801;28;20488;-56
2022/09/17 00:52:28;;;;;;;4.47;1.63;;;11.20;99.90;;;;;;5114605;28;20467;-57
2022/09/17 00:55:01;;;;;;;2.80;1.80;;;11.30;99.90;;;;;;5114560;28;20915;-57
2022/09/17 00:57:29;;;;;;;2.37;2.00;;;11.20;99.90;;;;;;5114562;28;20431;-57
2022/09/17 00:59:57;;;;;;;2.63;1.90;;;11.20;99.90;;;;;;5114902;28;20444;-56
2022/09/17 01:02:24;;;;;;;2.47;1.50;;;11.30;99.90;;;;;;5114712;28;20644;-57
2022/09/17 01:04:52;;;;;;;3.00;1.50;;;11.20;99.90;;;;;;5114686;28;20443;-57
2022/09/17 01:07:41;;;;;;;4.70;1.70;;;11.10;99.90;;;;;;5114538;28;20444;-57
2022/09/17 01:10:19;;;;;;;2.47;1.80;;;11.10;99.90;;;;;;5114841;28;20467;-57
2022/09/17 01:13:01;;;;;;;1.87;1.77;;;11.10;99.90;;;;;;5114569;28;20512;-56
2022/09/17 01:15:35;;;;;;;2.80;2.10;;;11.10;99.90;;;;;;5114261;28;20426;-57
2022/09/17 01:18:17;;;;;;;2.30;2.03;;;11.10;99.90;;;;;;5114421;28;20429;-57
2022/09/17 01:21:32;;;;;;;1.90;1.80;;;11.10;99.90;;;;;;5114065;28;20427;-57
2022/09/17 01:24:33;;;;;;;1.80;1.70;;;11.10;99.90;;;;;;5078408;28;20449;-56
2022/09/17 01:27:48;;;;;;;1.97;1.77;;;11.00;99.90;;;;;;5113472;28;20968;-56
2022/09/17 01:30:34;;;;;;;1.70;1.60;;;10.90;99.90;;;;;;5114062;28;20483;-57
2022/09/17 01:33:09;;;;;;;1.90;1.80;;;10.80;99.90;;;;;;5113383;28;20489;-57
2022/09/17 01:35:48;;;;;;;2.10;2.00;;;10.80;99.90;;;;;;5114406;28;20437;-56
2022/09/17 01:38:25;;;;;;;2.57;1.80;;;10.70;99.90;;;;;;5114208;28;20433;-56
2022/09/17 01:40:58;;;;;;;2.60;2.10;;;10.60;99.90;;;;;;5113757;28;20419;-56
2022/09/17 01:43:32;;;;;;;2.90;2.20;;;10.70;99.90;;;;;;5114040;28;20454;-55
2022/09/17 01:46:07;;;;;;;4.53;2.40;;;10.70;99.90;;;;;;5113605;28;20832;-56
2022/09/17 01:48:43;;;;;;;2.90;1.80;;;10.80;99.90;;;;;;5114351;28;20466;-56
2022/09/17 01:51:15;;;;;;;2.10;1.90;;;10.90;99.90;;;;;;5114027;28;20516;-56
2022/09/17 01:53:49;;;;;;;3.03;2.10;;;11.00;99.90;;;;;;5114041;28;20438;-56
2022/09/17 01:56:19;;;;;;;2.43;2.23;;;11.00;99.90;;;;;;5113547;28;20814;-56
2022/09/17 01:58:52;;;;;;;1.93;1.83;;;11.00;99.90;;;;;;5114027;28;20438;-56
2022/09/17 02:01:24;;;;;;;2.07;1.97;;;10.90;99.90;;;;;;5113683;28;20466;-55
2022/09/17 02:03:56;;;;;;;3.50;2.20;;;10.90;99.90;;;;;;5113877;28;20438;-56
2022/09/17 02:06:29;;;;;;;2.13;1.93;;;10.90;99.90;;;;;;5113887;28;20480;-56
2022/09/17 02:09:01;;;;;;;2.97;2.00;;;11.10;99.90;;;;;;5113477;28;20466;-56
2022/09/17 02:11:29;;;;;;;3.60;2.37;;;11.00;99.90;;;;;;5113551;28;20474;-56
2022/09/17 02:13:59;;;;;;;2.83;2.20;;;11.00;99.90;;;;;;5113835;28;20459;-56
2022/09/17 02:16:30;;;;;;;2.60;1.80;;;10.90;99.90;;;;;;5113434;28;20947;-56
2022/09/17 02:19:03;;;;;;;2.97;2.40;;;11.00;99.90;;;;;;5113593;28;20928;-56
2022/09/17 02:21:36;;;;;;;2.37;2.17;;;11.00;99.90;;;;;;5113758;28;20494;-56
2022/09/17 02:24:11;;;;;;;3.83;2.13;;;11.00;99.90;;;;;;5113333;28;20438;-56
2022/09/17 02:26:45;;;;;;;2.33;1.97;;;10.90;99.90;;;;;;5113594;28;20437;-56
2022/09/17 02:29:19;;;;;;;2.80;2.23;;;10.80;99.90;;;;;;5113553;28;20469;-55
2022/09/17 02:31:48;;;;;;;8.53;2.27;;;10.80;99.90;;;;;;5113667;28;20489;-56
2022/09/17 02:34:15;;;;;;;3.17;2.27;;;10.80;99.90;;;;;;5113659;28;20443;-56
2022/09/17 02:36:42;;;;;;;3.30;1.80;;;10.90;99.90;;;;;;5113569;28;20504;-55
2022/09/17 02:39:09;;;;;;;2.97;2.13;;;11.00;99.90;;;;;;5115282;28;20442;-56
2022/09/17 02:41:46;;;;;;;3.00;1.80;;;11.00;99.90;;;;;;5117564;28;20462;-56
2022/09/17 02:44:20;;;;;;;6.13;2.20;;;10.90;99.90;;;;;;5117380;28;20844;-56
2022/09/17 02:47:15;;;;;;;4.53;2.47;;;11.00;99.90;;;;;;5117221;28;20414;-56
2022/09/17 02:50:01;;;;;;;2.43;2.13;;;11.00;99.90;;;;;;5110257;28;20482;-56
2022/09/17 02:52:41;;;;;;;3.70;2.30;;;11.00;99.90;;;;;;5117312;28;20557;-56
2022/09/17 02:55:17;;;;;;;3.67;3.30;;;11.00;99.90;;;;;;5116883;28;20442;-56
2022/09/17 02:57:52;;;;;;;4.37;2.17;;;10.90;99.90;;;;;;5116975;28;20517;-56
2022/09/17 03:00:22;;;;;;;3.23;1.87;;;10.90;99.90;;;;;;5117231;28;20426;-56
2022/09/17 03:02:58;;;;;;;4.90;1.90;;;10.80;99.90;;;;;;5117178;28;20462;-56
2022/09/17 03:05:27;;;;;;;5.47;2.20;;;10.80;99.90;;;;;;5117237;28;20637;-56
2022/09/17 03:07:55;;;;;;;3.70;2.17;;;10.80;99.90;;;;;;5116962;28;20446;-56
2022/09/17 03:10:23;;;;;;;2.80;2.27;;;10.70;99.90;;;;;;5116598;28;20474;-55
2022/09/17 03:12:51;;;;;;;2.20;2.00;;;10.60;99.90;;;;;;5116945;28;20561;-55
2022/09/17 03:15:18;;;;;;;4.90;2.10;;;10.60;99.90;;;;;;5116524;28;20457;-56
2022/09/17 03:17:46;;;;;;;5.03;2.57;;;10.60;99.90;;;;;;5116840;28;20451;-56
2022/09/17 03:20:15;;;;;;;4.07;2.00;;;10.60;99.90;;;;;;5116884;28;20446;-56
2022/09/17 03:22:42;;;;;;;4.73;2.57;;;10.50;99.90;;;;;;5116671;28;20443;-56
2022/09/17 03:25:11;;;;;;;2.80;2.37;;;10.50;99.90;;;;;;5116277;28;20948;-56
2022/09/17 03:27:38;;;;;;;4.50;2.37;;;10.40;99.90;;;;;;5116672;28;20447;-55
2022/09/17 03:30:11;;;;;;;3.87;2.10;;;10.40;99.90;;;;;;5116222;28;20489;-55
2022/09/17 03:32:38;;;;;;;5.77;3.10;;;10.40;99.90;;;;;;5116028;28;20988;-56
2022/09/17 03:35:05;;;;;;;8.37;2.20;;;10.40;99.90;;;;;;5116465;28;20807;-56
2022/09/17 03:37:34;;;;;;;3.00;1.90;;;10.40;99.90;;;;;;5116563;28;20442;-56
2022/09/17 03:40:01;;;;;;;4.50;2.70;;;10.40;99.90;;;;;;5116359;28;20446;-55
2022/09/17 03:42:29;;;;;;;3.93;2.37;;;10.40;99.90;;;;;;5116182;28;20502;-56
2022/09/17 03:44:56;;;;;;;2.50;2.30;;;10.40;99.90;;;;;;5116157;28;20850;-56
2022/09/17 03:47:23;;;;;;;3.10;2.03;;;10.40;99.90;;;;;;5115879;28;20937;-56
2022/09/17 03:49:51;;;;;;;4.03;2.10;;;10.40;99.90;;;;;;5115760;28;20482;-56
2022/09/17 03:52:18;;;;;;;2.43;2.10;;;10.30;99.90;;;;;;5115859;28;20496;-56
2022/09/17 03:54:47;;;;;;;5.40;2.67;;;10.20;99.90;;;;;;5116125;28;20447;-56
2022/09/17 03:57:14;;;;;;;5.23;2.50;;;10.20;99.90;;;;;;5115811;28;20944;-56
2022/09/17 03:59:41;;;;;;;3.63;2.00;;;10.30;99.90;;;;;;5115970;28;20958;-56
2022/09/17 04:02:08;;;;;;;3.07;2.73;;;10.30;99.90;;;;;;5115611;28;21055;-56
2022/09/17 04:04:36;;;;;;;11.73;2.60;;;10.30;99.90;;;;;;5115945;28;20453;-56
2022/09/17 04:07:03;;;;;;;4.60;2.33;;;10.30;99.90;;;;;;5115697;28;20442;-56
2022/09/17 04:09:30;;;;;;;3.60;2.30;;;10.30;99.90;;;;;;5115721;28;20478;-56
2022/09/17 04:11:59;;;;;;;6.57;1.97;;;10.30;99.90;;;;;;5115464;28;20455;-56
2022/09/17 04:14:26;;;;;;;4.50;2.60;;;10.30;99.90;;;;;;5116095;28;20460;-56
2022/09/17 04:16:53;;;;;;;4.07;2.63;;;10.30;99.90;;;;;;5115457;28;20462;-56
2022/09/17 04:19:20;;;;;;;3.20;2.00;;;10.30;99.90;;;;;;5115388;28;20418;-56
2022/09/17 04:21:47;;;;;;;3.43;2.87;;;10.30;99.90;;;;;;5115329;28;20879;-56
2022/09/17 04:24:15;;;;;;;3.50;2.20;;;10.30;99.90;;;;;;5115719;28;20443;-55
2022/09/17 04:26:42;;;;;;;5.70;2.00;;;10.30;99.90;;;;;;5115140;28;20921;-55
2022/09/17 04:29:10;;;;;;;4.50;2.17;;;10.20;99.90;;;;;;5115376;28;20438;-55
2022/09/17 04:31:38;;;;;;;2.83;1.90;;;10.20;99.90;;;;;;5115453;28;20826;-56
2022/09/17 04:34:05;;;;;;;4.73;2.53;;;10.20;99.90;;;;;;5115065;28;20496;-56
2022/09/17 04:36:32;;;;;;;4.37;2.70;;;10.10;99.90;;;;;;5114986;28;20449;-56
2022/09/17 04:38:59;;;;;;;3.00;2.20;;;10.10;99.90;;;;;;5115086;28;20456;-56
2022/09/17 04:41:27;;;;;;;2.57;1.90;;;10.20;99.90;;;;;;5114892;28;20465;-55
2022/09/17 04:43:54;;;;;;;3.90;2.30;;;10.20;99.90;;;;;;5114868;28;20812;-56
2022/09/17 04:46:23;;;;;;;3.43;2.30;;;10.20;99.90;;;;;;5115159;28;20434;-56
2022/09/17 04:48:50;;;;;;;6.67;2.30;;;10.10;99.90;;;;;;5113917;28;20443;-56
2022/09/17 04:51:17;;;;;;;7.40;3.30;;;10.20;99.90;;;;;;5114833;28;20490;-56
2022/09/17 04:53:44;;;;;;;12.40;2.57;;;10.20;99.90;;;;;;5115047;28;20453;-56
2022/09/17 04:56:12;;;;;;;3.43;2.37;;;10.30;99.90;;;;;;5114441;28;20447;-55
2022/09/17 04:58:39;;;;;;;4.97;2.30;;;10.40;99.90;;;;;;5114805;28;20450;-55
2022/09/17 05:01:06;;;;;;;3.23;1.70;;;10.50;99.90;;;;;;5114789;28;20969;-56
2022/09/17 05:03:34;;;;;;;3.83;3.07;;;10.40;99.90;;;;;;5113653;28;20841;-55
2022/09/17 05:06:02;;;;;;;4.80;2.60;;;10.40;99.90;;;;;;5114355;28;20454;-56
2022/09/17 05:08:29;;;;;;;9.10;2.60;;;10.40;99.90;;;;;;5114434;28;20945;-56
2022/09/17 05:10:56;;;;;;;6.60;2.60;;;10.40;99.90;;;;;;5114505;28;20512;-56
2022/09/17 05:13:24;;;;;;;8.93;2.57;;;10.40;99.90;;;;;;5114467;28;20458;-56
2022/09/17 05:15:51;;;;;;;4.40;2.67;;;10.50;99.90;;;;;;5114722;28;20447;-56
2022/09/17 05:18:18;;;;;;;2.80;2.03;;;10.50;99.90;;;;;;5114462;28;20446;-56
2022/09/17 05:20:47;;;;;;;6.27;3.90;;;10.60;99.90;;;;;;5114293;28;20443;-56
2022/09/17 05:23:14;;;;;;;2.50;2.30;;;10.60;99.90;;;;;;5114460;28;20446;-56
2022/09/17 05:25:41;;;;;;;4.37;2.80;;;10.60;99.90;;;;;;5114181;28;20997;-55
2022/09/17 05:28:09;;;;;;;2.43;2.23;;;10.60;99.90;;;;;;5114251;28;20457;-56
2022/09/17 05:30:36;;;;;;;5.10;2.30;;;10.50;99.90;;;;;;5114218;28;20479;-56
2022/09/17 05:33:06;;;;;;;8.37;2.37;;;10.50;99.90;;;;;;5114377;28;20462;-55
2022/09/17 05:35:35;;;;;;;2.53;2.10;;;10.50;99.90;;;;;;5113945;28;20431;-55
2022/09/17 05:38:06;;;;;;;7.27;3.37;;;10.40;99.90;;;;;;5114282;28;20477;-56
2022/09/17 05:40:33;;;;;;;3.80;2.40;;;10.40;99.90;;;;;;5114370;28;20776;-56
2022/09/17 05:43:01;;;;;;;2.60;2.40;;;10.40;99.90;;;;;;5113979;28;20545;-56
2022/09/17 05:45:29;;;;;;;2.70;2.50;;;10.40;99.90;;;;;;5113683;28;20478;-56
2022/09/17 05:47:57;;;;;;;6.57;3.30;;;10.40;99.90;;;;;;5113939;28;20443;-56
2022/09/17 05:50:24;;;;;;;4.20;2.73;;;10.40;99.90;;;;;;5113732;28;20485;-56
2022/09/17 05:52:51;;;;;;;7.70;3.73;;;10.40;99.90;;;;;;5113916;28;20463;-56
2022/09/17 05:55:22;;;;;;;3.47;2.03;;;10.40;99.90;;;;;;5113565;28;20442;-55
2022/09/17 05:57:49;;;;;;;4.93;2.53;;;10.30;99.90;;;;;;5113992;28;20455;-56
2022/09/17 06:00:17;;;;;;;3.40;2.60;;;10.30;99.90;;;;;;5113903;28;20446;-56
2022/09/17 06:02:44;;;;;;;5.63;2.77;;;10.40;99.90;;;;;;5113767;28;20474;-55
2022/09/17 06:05:11;;;;;;;4.83;2.80;;;10.40;99.90;;;;;;5113889;28;20446;-56
2022/09/17 06:07:39;;;;;;;6.00;3.40;;;10.40;99.90;;;;;;5113427;28;20447;-55
2022/09/17 06:10:08;;;;;;;3.60;2.67;;;10.50;99.90;;;;;;5113381;28;20833;-55
2022/09/17 06:12:36;;;;;;;2.93;2.63;;;10.50;99.90;;;;;;5113875;28;20474;-56
2022/09/17 06:15:04;;;;;;;6.63;2.90;;;10.60;99.90;;;;;;5117116;28;20457;-56
2022/09/17 06:17:34;;;;;;;12.03;3.30;;;10.70;99.90;;;;;;5117963;28;20470;-56
2022/09/17 06:20:01;;;;;;;7.20;2.87;;;10.70;99.90;;;;;;5117821;28;20476;-56
2022/09/17 06:22:28;;;;;;;6.00;2.90;;;10.80;99.90;;;;;;5117906;28;20596;-55
2022/09/17 06:24:55;;;;;;;4.30;3.00;;;10.90;99.90;;;;;;5117796;28;20534;-56
2022/09/17 06:27:22;;;;;;;4.40;2.90;;;10.90;99.90;;;;;;5117733;28;20478;-55
2022/09/17 06:29:51;;;;;;;3.87;2.90;;;10.90;99.90;;;;;;5117858;28;20453;-56
2022/09/17 06:32:18;;;;;;;5.20;2.50;;;10.90;99.90;;;;;;5117601;28;20489;-56
2022/09/17 06:34:45;;;;;;;3.60;3.07;;;10.90;99.90;;;;;;5117609;28;20450;-55
2022/09/17 06:37:12;;;;;;;3.47;2.57;;;11.00;99.90;;;;;;5117409;28;20450;-56
2022/09/17 06:39:40;;;;;;;2.67;2.47;;;11.10;99.90;;;;;;5117175;28;20446;-56
2022/09/17 06:42:07;;;;;;;4.70;2.67;;;11.10;99.90;;;;;;5117314;28;20645;-56
2022/09/17 06:44:34;;;;;;;4.20;2.60;;;11.20;99.90;;;;;;5117016;28;20480;-55
2022/09/17 06:47:03;;;;;;;5.50;2.93;;;11.20;99.90;;;;;;5117184;28;20446;-56
2022/09/17 06:49:30;;;;;;;8.10;3.07;;;11.10;99.90;;;;;;5116950;28;20450;-55
2022/09/17 06:51:57;;;;;;;6.30;2.53;;;11.10;99.90;;;;;;5117219;28;20497;-56
2022/09/17 06:54:24;;;;;;;6.10;2.70;;;11.10;99.90;;;;;;5117204;28;20450;-56
2022/09/17 06:56:52;;;;;;;5.80;3.70;;;11.20;99.90;;;;;;5116816;28;20450;-55
2022/09/17 06:59:19;;;;;;;9.60;3.10;;;11.10;99.90;;;;;;5117090;28;20967;-56
2022/09/17 07:01:48;;;;;;;2.87;2.57;;;11.20;99.90;;;;;;5116742;28;20462;-56
2022/09/17 07:04:17;;;;;;;6.27;2.70;;;11.20;99.90;;;;;;5117056;28;20482;-56
2022/09/17 07:06:45;;;;;;;5.23;2.77;;;11.20;99.90;;;;;;5117199;28;20791;-56
2022/09/17 07:09:12;;;;;;;3.63;2.73;;;11.20;99.90;;;;;;5116639;28;20954;-56
2022/09/17 07:11:40;;;;;;;3.83;2.60;;;11.10;99.90;;;;;;5116437;28;20486;-56
2022/09/17 07:14:07;;;;;;;4.10;2.57;;;11.20;99.90;;;;;;5117125;28;21027;-56
2022/09/17 07:16:35;;;;;;;6.57;3.10;;;11.30;99.90;;;;;;5116841;28;20442;-56
2022/09/17 07:19:03;;;;;;;3.87;2.60;;;11.40;99.90;;;;;;5116704;28;20446;-55
2022/09/17 07:21:31;;;;;;;8.00;4.17;;;11.10;99.90;;;;;;5116578;28;20458;-56
2022/09/17 07:23:59;;;;;;;4.33;2.67;;;11.00;99.90;;;;;;5116795;28;20442;-56
2022/09/17 07:26:26;;;;;;;4.47;3.00;;;10.80;99.90;;;;;;5115292;28;20862;-56
2022/09/17 07:28:53;;;;;;;6.93;3.00;;;10.70;99.90;;;;;;5116304;28;20469;-55
2022/09/17 07:31:20;;;;;;;9.20;3.03;;;10.60;99.90;;;;;;5116152;28;20486;-57
2022/09/17 07:33:47;;;;;;;6.37;3.27;;;10.60;99.90;;;;;;5116493;28;20449;-56
2022/09/17 07:36:16;;;;;;;4.37;3.57;;;10.50;99.90;;;;;;5115947;28;20445;-57
2022/09/17 07:38:45;;;;;;;6.00;2.90;;;10.70;99.90;;;;;;5116134;28;20499;-56
2022/09/17 07:41:15;;;;;;;6.50;3.20;;;10.60;99.90;;;;;;5115951;28;20477;-57
2022/09/17 07:43:43;;;;;;;3.10;2.90;;;10.60;99.90;;;;;;5116332;28;20458;-56
2022/09/17 07:46:14;;;;;;;3.10;2.90;;;10.60;99.90;;;;;;5115838;28;20998;-56
2022/09/17 07:48:41;;;;;;;5.33;3.30;;;10.50;99.90;;;;;;5116251;28;20423;-56
2022/09/17 07:51:08;;;;;;;3.93;3.17;;;10.50;99.90;;;;;;5115633;28;20529;-56
2022/09/17 07:53:35;;;;;;;3.10;2.90;;;10.30;99.90;;;;;;5116036;28;20494;-56
2022/09/17 07:56:04;;;;;;;7.80;2.90;;;10.30;99.90;;;;;;5115972;28;20454;-56
2022/09/17 07:58:33;;;;;;;3.60;2.80;;;10.30;99.90;;;;;;5115764;28;20423;-56
2022/09/17 08:01:02;;;;;;;4.77;2.70;;;10.40;99.90;;;;;;5115758;28;20454;-56
2022/09/17 08:03:29;;;;;;;4.20;3.20;;;10.40;99.90;;;;;;5115813;28;20434;-56
2022/09/17 08:06:03;;;;;;;3.17;2.87;;;10.60;99.90;;;;;;5115537;28;20533;-56
2022/09/17 08:08:31;;;;;;;3.80;2.97;;;10.70;99.90;;;;;;5115627;28;20431;-56
2022/09/17 08:11:01;;;;;;;3.37;2.90;;;10.80;99.90;;;;;;5115663;28;20505;-56
2022/09/17 08:13:30;;;;;;;5.70;2.90;;;10.80;99.90;;;;;;5107173;28;20467;-55
2022/09/17 08:16:01;;;;;;;4.40;3.10;;;10.80;99.90;;;;;;5098616;28;21004;-56
2022/09/17 08:18:28;;;;;;;3.27;2.90;;;10.70;99.90;;;;;;5107419;28;20463;-56
2022/09/17 08:20:58;;;;;;;5.73;2.70;;;10.70;99.90;;;;;;5096771;28;20475;-56
2022/09/17 08:23:25;;;;;;;10.50;2.80;;;10.70;99.90;;;;;;5093891;28;20451;-56
2022/09/17 08:25:54;;;;;;;6.50;3.47;;;10.80;99.90;;;;;;5092715;28;20448;-55
2022/09/17 08:28:21;;;;;;;6.20;3.83;;;10.90;99.90;;;;;;5093741;28;20454;-56
2022/09/17 08:30:50;;;;;;;5.03;4.30;;;10.80;99.90;;;;;;5094086;28;20489;-56
2022/09/17 08:33:17;;;;;;;4.60;3.50;;;10.90;99.90;;;;;;5094094;28;21017;-56
2022/09/17 08:35:51;;;;;;;4.40;3.47;;;11.10;99.90;;;;;;5094554;28;20447;-56
2022/09/17 08:38:18;;;;;;;4.17;3.33;;;11.10;99.90;;;;;;5094393;28;20467;-56
2022/09/17 08:40:56;;;;;;;4.47;3.23;;;11.10;99.90;;;;;;5094350;28;20907;-56
2022/09/17 08:43:24;;;;;;;6.20;3.20;;;11.40;99.90;;;;;;5094561;28;20462;-56
2022/09/17 08:45:55;;;;;;;10.50;3.53;;;11.50;99.90;;;;;;5094222;28;20921;-56
2022/09/17 08:48:25;;;;;;;10.67;4.70;;;11.40;99.90;;;;;;5094794;28;20442;-56
2022/09/17 08:50:52;;;;;;;3.97;3.43;;;11.40;99.90;;;;;;5094109;28;21020;-56
2022/09/17 08:53:32;;;;;;;8.57;3.87;;;11.50;99.90;;;;;;5094236;28;20962;-56
2022/09/17 08:56:04;;;;;;;9.80;3.90;;;11.50;99.90;;;;;;5094165;28;20870;-55
2022/09/17 08:58:56;;;;;;;6.70;3.57;;;11.80;99.90;;;;;;5094649;28;20435;-56
2022/09/17 09:01:32;;;;;;;7.47;3.53;;;12.10;99.90;;;;;;5094289;28;20811;-56
2022/09/17 09:04:32;;;;;;;13.43;4.80;;;12.30;99.90;;;;;;5094133;28;20431;-56
2022/09/17 09:07:06;;;;;;;9.73;3.60;;;12.20;99.90;;;;;;5085244;28;20451;-56
2022/09/17 09:09:38;;;;;;;7.77;3.40;;;12.30;99.90;;;;;;5094152;28;20431;-56
2022/09/17 09:12:12;;;;;;;5.47;3.10;;;12.40;99.90;;;;;;5093758;28;20483;-56
2022/09/17 09:14:46;;;;;;;6.03;3.00;;;12.40;99.90;;;;;;5094125;28;20831;-56
2022/09/17 09:17:17;;;;;;;10.23;2.90;;;12.30;99.90;;;;;;5094077;28;20441;-56
2022/09/17 09:19:46;;;;;;;5.23;3.30;;;12.20;99.90;;;;;;5094154;28;20432;-56
2022/09/17 09:22:34;;;;;;;12.33;3.27;;;12.20;99.90;;;;;;5094031;28;20796;-57
2022/09/17 09:25:10;;;;;;;10.10;3.57;;;12.20;99.90;;;;;;5094073;28;20480;-56
2022/09/17 09:27:43;;;;;;;10.53;3.47;;;12.20;99.90;;;;;;5093953;28;20451;-56
2022/09/17 09:30:13;;;;;;;5.47;3.10;;;12.20;99.90;;;;;;5093629;28;20439;-56
2022/09/17 09:32:55;;;;;;;7.10;3.10;;;12.20;99.90;;;;;;5093675;28;20484;-55
2022/09/17 09:35:24;;;;;;;7.00;4.57;;;12.10;99.90;;;;;;5093925;28;20439;-56
2022/09/17 09:37:58;;;;;;;22.77;5.00;;;12.30;99.90;;;;;;5093580;28;20967;-56
2022/09/17 09:40:36;;;;;;;17.33;3.40;;;12.40;99.90;;;;;;5093773;28;20848;-56
2022/09/17 09:43:11;;;;;;;6.60;3.73;;;12.40;99.90;;;;;;5093914;28;20557;-56
2022/09/17 09:45:54;;;;;;;6.77;4.00;;;12.40;99.90;;;;;;5093054;28;20976;-56
2022/09/17 09:48:33;;;;;;;10.13;4.00;;;12.50;99.90;;;;;;5092781;28;20796;-56
2022/09/17 09:51:14;;;;;;;7.60;4.43;;;12.70;99.90;;;;;;5093339;28;20459;-56
2022/09/17 09:53:53;;;;;;;9.00;3.90;;;12.60;99.90;;;;;;5093212;28;20431;-56
2022/09/17 09:56:35;;;;;;;7.17;3.30;;;12.60;99.90;;;;;;5093334;28;20514;-56
2022/09/17 09:59:06;;;;;;;5.53;3.10;;;12.70;99.90;;;;;;5093320;28;20438;-56
2022/09/17 10:01:38;;;;;;;5.10;3.20;;;12.60;99.90;;;;;;5093439;28;20649;-56
2022/09/17 10:04:17;;;;;;;8.93;3.00;;;12.50;99.90;;;;;;5093239;28;20811;-56
2022/09/17 10:06:45;;;;;;;4.90;3.43;;;12.50;99.90;;;;;;5093236;28;20434;-56
2022/09/17 10:09:15;;;;;;;6.47;3.47;;;12.50;99.90;;;;;;5093144;28;20479;-56
2022/09/17 10:11:43;;;;;;;6.37;2.60;;;13.20;99.90;;;;;;5091791;28;20475;-56
2022/09/17 10:14:25;;;;;;;4.50;3.53;;;13.30;99.90;;;;;;5093650;28;20463;-56
2022/09/17 10:17:20;;;;;;;6.70;3.70;;;13.70;99.90;;;;;;5093180;28;20431;-56
2022/09/17 10:20:16;;;;;;;3.93;3.10;;;15.50;99.90;;;;;;5093292;28;20436;-56
2022/09/17 10:22:45;;;;;;;5.67;2.97;;;16.30;99.90;;;;;;5092811;28;20474;-56
2022/09/17 10:25:28;;;;;;;4.37;3.00;;;16.80;99.90;;;;;;5093262;28;20493;-57
2022/09/17 10:27:56;;;;;;;9.17;3.27;;;17.10;99.90;;;;;;5092861;28;20925;-56
2022/09/17 10:30:24;;;;;;;5.47;2.40;;;18.10;99.90;;;;;;5093379;28;20451;-56
2022/09/17 10:33:17;;;;;;;2.57;2.20;;;17.90;99.90;;;;;;5093042;28;20483;-56
2022/09/17 10:35:56;;;;;;;6.20;2.73;;;17.60;99.90;;;;;;5092906;28;20929;-56
2022/09/17 10:38:29;;;;;;;6.53;2.77;;;16.50;99.90;;;;;;5092950;28;20890;-56
2022/09/17 10:41:13;;;;;;;6.90;3.37;;;16.60;99.90;;;;;;5093219;28;20435;-57
2022/09/17 10:43:41;;;;;;;8.80;2.47;;;16.50;99.90;;;;;;5091377;28;20554;-57
2022/09/17 10:46:12;;;;;;;5.03;2.23;;;17.40;99.90;;;;;;5091478;28;20471;-57
2022/09/17 10:48:44;;;;;;;4.80;2.67;;;18.00;99.90;;;;;;5092586;28;20448;-57
2022/09/17 10:51:22;;;;;;;5.57;2.40;;;18.00;99.90;;;;;;5092666;28;20463;-56
2022/09/17 10:54:18;;;;;;;4.00;2.23;;;18.40;99.90;;;;;;5092579;28;20432;-56
2022/09/17 10:56:48;;;;;;;4.00;2.33;;;19.00;99.90;;;;;;5092931;28;20440;-57
2022/09/17 10:59:38;;;;;;;3.57;1.90;;;18.20;99.90;;;;;;5092769;28;20506;-57
2022/09/17 11:02:27;;;;;;;5.20;2.50;;;18.30;99.90;;;;;;5096274;28;20463;-57
2022/09/17 11:05:05;;;;;;;3.33;2.40;;;18.50;99.90;;;;;;5096611;28;20427;-56
2022/09/17 11:07:44;;;;;;;3.00;2.00;;;18.50;99.90;;;;;;5096602;28;20455;-57
2022/09/17 11:10:16;;;;;;;5.00;1.50;;;17.70;99.90;;;;;;5096424;28;20431;-57
2022/09/17 11:13:03;;;;;;;4.27;2.47;;;18.60;99.90;;;;;;5096236;28;20528;-56
2022/09/17 11:15:41;;;;;;;5.97;2.57;;;19.70;99.50;;;;;;5096013;28;20434;-57
2022/09/17 11:18:32;;;;;;;4.60;2.10;;;20.00;98.10;;;;;;5096135;28;20902;-57
2022/09/17 11:21:38;;;;;;;4.93;2.57;;;19.90;97.20;;;;;;5096060;28;20471;-56
2022/09/17 11:24:28;;;;;;;3.07;2.70;;;19.20;96.50;;;;;;5033654;28;20446;-56
2022/09/17 11:27:05;;;;;;;11.60;4.10;;;18.00;98.00;;;;;;5090666;28;20451;-56
2022/09/17 11:29:52;;;;;;;4.63;2.63;;;17.10;98.70;;;;;;5096201;28;20434;-56
2022/09/17 11:32:44;;;;;;;8.70;2.10;;;16.80;99.40;;;;;;5096008;28;20510;-56
2022/09/17 11:35:15;;;;;;;4.97;2.30;;;16.80;99.70;;;;;;5095897;28;20894;-56
2022/09/17 11:37:47;;;;;;;2.70;1.60;;;16.80;99.50;;;;;;5095681;28;20443;-56
2022/09/17 11:40:23;;;;;;;4.50;2.87;;;17.30;99.70;;;;;;5096038;28;20446;-56
2022/09/17 11:42:56;;;;;;;4.83;1.70;;;17.50;99.60;;;;;;5095515;28;20467;-56
2022/09/17 11:45:29;;;;;;;4.13;2.10;;;17.40;99.90;;;;;;5095451;28;20841;-56
2022/09/17 11:48:01;;;;;;;3.33;2.57;;;18.00;99.90;;;;;;5095517;28;20913;-57
2022/09/17 11:50:33;;;;;;;6.77;2.90;;;18.80;97.50;;;;;;5095345;28;20440;-57
2022/09/17 11:53:09;;;;;;;5.33;2.30;;;19.30;97.70;;;;;;5095446;28;20495;-56
2022/09/17 11:55:44;;;;;;;3.77;1.60;;;19.50;96.80;;;;;;5095521;28;20427;-56
2022/09/17 11:58:17;;;;;;;4.40;1.80;;;18.60;95.30;;;;;;5095360;28;20428;-56
2022/09/17 12:00:51;;;;;;;5.33;2.20;;;17.90;96.10;;;;;;5095546;28;20768;-56
2022/09/17 12:03:24;;;;;;;4.57;2.67;;;17.40;96.60;;;;;;5095421;28;20431;-56
2022/09/17 12:05:55;;;;;;;6.40;1.90;;;17.20;97.20;;;;;;5095478;28;20428;-56
2022/09/17 12:08:26;;;;;;;3.23;1.90;;;17.60;98.20;;;;;;5095210;28;20885;-56
2022/09/17 12:11:04;;;;;;;4.03;1.90;;;17.50;97.60;;;;;;5095111;28;20481;-56
2022/09/17 12:13:36;;;;;;;4.00;1.90;;;16.80;98.30;;;;;;5095354;28;20489;-57
2022/09/17 12:16:15;;;;;;;3.97;2.30;;;15.90;99.90;;;;;;5095306;28;20435;-56
2022/09/17 12:19:00;;;;;;;4.30;3.10;;;15.70;99.90;;;;;;5095182;28;20449;-56
2022/09/17 12:21:42;;;;;;;3.67;2.20;;;15.20;99.90;;;;;;5095152;28;20482;-56
2022/09/17 12:24:17;;;;;;;1.97;1.67;;;15.10;99.90;;;;;;5094777;28;20432;-56
2022/09/17 12:27:06;;;;;;;5.07;2.50;;;14.80;99.90;;;;;;5095237;28;20431;-56
2022/09/17 12:30:01;;;;;;;3.70;2.73;;;14.60;99.90;;;;;;5095048;28;20419;-56
2022/09/17 12:33:07;;;;;;;2.90;2.00;;;14.10;99.90;;;;;;5094791;28;20487;-56
2022/09/17 12:36:03;;;;;;;7.23;2.20;;;14.30;99.90;;;;;;5088395;28;20447;-56
2022/09/17 12:38:50;;;;;;;4.30;1.80;;;14.50;99.90;;;;;;5094770;28;20415;-55
2022/09/17 12:41:21;;;;;;;7.23;2.20;;;15.00;99.90;;;;;;5094851;28;20452;-56
2022/09/17 12:44:12;;;;;;;3.73;2.43;;;15.10;99.90;;;;;;5094819;28;20447;-56
2022/09/17 12:46:56;;;;;;;7.23;2.27;;;14.90;99.90;;;;;;5094796;28;20435;-56
2022/09/17 12:49:39;;;;;;;3.47;2.03;;;14.80;99.90;;;;;;5094756;28;20428;-56
2022/09/17 12:52:16;;;;;;;2.23;1.93;;;14.30;99.90;;;;;;5094412;28;20483;-56
2022/09/17 12:55:08;;;;;;;1.73;1.60;;;13.70;99.90;;;;;;5094462;28;20502;-56
2022/09/17 12:57:43;;;;;;;3.10;1.93;;;13.50;99.90;;;;;;5094202;28;20430;-55
2022/09/17 13:00:14;;;;;;;3.23;2.00;;;13.30;99.90;;;;;;5094136;28;20914;-56
2022/09/17 13:02:46;;;;;;;4.60;1.90;;;12.80;99.90;;;;;;5093014;28;20552;-56
2022/09/17 13:05:49;;;;;;;5.77;2.17;;;12.70;99.90;;;;;;5094169;28;20434;-56
2022/09/17 13:08:42;;;;;;;2.03;1.80;;;12.70;99.90;;;;;;5094389;28;20450;-56
2022/09/17 13:11:46;;;;;;;2.33;1.60;;;12.60;99.90;;;;;;5093978;28;20463;-56
2022/09/17 13:14:22;;;;;;;9.90;1.90;;;12.30;99.90;;;;;;5094310;28;20487;-56